Time;durP1;ratioP1;P1;durP2;ratioP2;P2;SDS_P1;SDS_P2;PMS_P1;PMS_P2;Temp;Humidity;BMP_temperature;BMP_pressure;BME280_temperature;BME280_humidity;BME280_pressure;Samples;Min_cycle;Max_cycle;Signal;HPM_P1;HPM_P2
2023/05/20 00:00:48;;;;;;;2.40;2.30;;;9.30;1.00;;;;;;5079322;28;20543;-70
2023/05/20 00:03:16;;;;;;;3.30;2.17;;;9.30;1.00;;;;;;5075592;28;20193;-65
2023/05/20 00:05:42;;;;;;;2.10;2.00;;;9.30;1.00;;;;;;5074484;28;20398;-69
2023/05/20 00:08:08;;;;;;;2.07;1.90;;;9.30;1.00;;;;;;5075873;28;20717;-68
2023/05/20 00:10:35;;;;;;;3.17;2.87;;;9.20;1.00;;;;;;5091721;28;20195;-65
2023/05/20 00:13:01;;;;;;;2.57;2.33;;;9.20;1.00;;;;;;5095280;28;20402;-69
2023/05/20 00:15:27;;;;;;;2.70;2.57;;;9.10;1.00;;;;;;5080079;28;20451;-69
2023/05/20 00:17:52;;;;;;;2.80;2.17;;;9.10;1.00;;;;;;5075737;28;20791;-65
2023/05/20 00:20:18;;;;;;;2.73;2.10;;;9.10;1.00;;;;;;5088518;28;20896;-65
2023/05/20 00:22:44;;;;;;;2.87;2.40;;;9.10;1.00;;;;;;5095624;28;20242;-65
2023/05/20 00:25:13;;;;;;;2.03;1.93;;;9.00;1.00;;;;;;5083303;28;20265;-65
2023/05/20 00:27:39;;;;;;;5.20;2.40;;;9.00;1.00;;;;;;5076543;28;20170;-65
2023/05/20 00:30:06;;;;;;;2.37;2.20;;;9.00;1.00;;;;;;5085367;28;20447;-71
2023/05/20 00:32:32;;;;;;;2.37;2.27;;;8.90;1.00;;;;;;5095308;28;20418;-65
2023/05/20 00:34:58;;;;;;;2.60;2.40;;;8.90;1.00;;;;;;5085657;28;20431;-65
2023/05/20 00:37:25;;;;;;;3.80;1.97;;;8.90;1.00;;;;;;5075317;28;20766;-65
2023/05/20 00:39:51;;;;;;;2.40;2.20;;;8.80;1.00;;;;;;5082653;28;20549;-69
2023/05/20 00:42:23;;;;;;;2.40;2.20;;;8.80;1.00;;;;;;5094571;28;20681;-68
2023/05/20 00:44:49;;;;;;;4.37;2.37;;;8.80;1.00;;;;;;5082647;28;20539;-68
2023/05/20 00:47:20;;;;;;;2.83;2.33;;;8.80;1.00;;;;;;5074933;28;20860;-69
2023/05/20 00:49:47;;;;;;;3.33;2.50;;;8.80;1.00;;;;;;5084172;28;20684;-65
2023/05/20 00:52:14;;;;;;;3.87;2.17;;;8.80;1.00;;;;;;5092544;28;20420;-65
2023/05/20 00:54:40;;;;;;;2.10;2.00;;;8.80;1.00;;;;;;5082486;28;20503;-68
2023/05/20 00:57:06;;;;;;;2.23;2.13;;;8.70;1.00;;;;;;5074836;28;20397;-68
2023/05/20 00:59:37;;;;;;;2.23;2.03;;;8.70;1.00;;;;;;5074804;28;20489;-69
2023/05/20 01:02:04;;;;;;;2.27;2.13;;;8.70;1.00;;;;;;5073793;28;20370;-69
2023/05/20 01:04:30;;;;;;;2.53;2.20;;;8.60;1.00;;;;;;5084129;28;20417;-65
2023/05/20 01:06:58;;;;;;;2.37;1.90;;;8.60;1.00;;;;;;5094463;28;20781;-65
2023/05/20 01:09:24;;;;;;;2.30;2.10;;;8.60;1.00;;;;;;5086155;28;20482;-68
2023/05/20 01:12:10;;;;;;;2.30;2.10;;;8.60;1.00;;;;;;5073653;28;20368;-64
2023/05/20 01:14:45;;;;;;;2.60;2.40;;;8.60;1.00;;;;;;5076692;28;20765;-64
2023/05/20 01:17:16;;;;;;;2.30;2.20;;;8.60;1.00;;;;;;5073685;28;20402;-68
2023/05/20 01:19:43;;;;;;;2.57;2.37;;;8.60;1.00;;;;;;5083777;28;20468;-68
2023/05/20 01:22:11;;;;;;;3.10;2.67;;;8.60;1.00;;;;;;5093347;28;20418;-65
2023/05/20 01:24:41;;;;;;;2.50;2.30;;;8.60;1.00;;;;;;5085296;28;20429;-68
2023/05/20 01:27:09;;;;;;;2.53;2.27;;;8.60;1.00;;;;;;5074174;28;20894;-68
2023/05/20 01:29:36;;;;;;;2.20;2.10;;;8.60;1.00;;;;;;5081443;28;20455;-65
2023/05/20 01:32:34;;;;;;;2.67;2.40;;;8.60;1.00;;;;;;5093210;28;20410;-65
2023/05/20 01:35:01;;;;;;;3.00;1.83;;;8.60;1.00;;;;;;5066110;28;20428;-65
2023/05/20 01:37:28;;;;;;;2.33;2.10;;;8.60;1.00;;;;;;5074051;28;20404;-67
2023/05/20 01:39:55;;;;;;;1.87;1.77;;;8.60;1.00;;;;;;5082632;28;20819;-66
2023/05/20 01:42:22;;;;;;;3.00;1.90;;;8.60;1.00;;;;;;5093052;28;20370;-68
2023/05/20 01:44:48;;;;;;;2.33;2.13;;;8.50;1.00;;;;;;5086390;28;20396;-65
2023/05/20 01:47:13;;;;;;;2.37;2.17;;;8.60;1.00;;;;;;5073964;28;20400;-65
2023/05/20 01:49:40;;;;;;;2.40;2.20;;;8.60;1.00;;;;;;5079358;28;20663;-65
2023/05/20 01:52:06;;;;;;;3.23;3.03;;;8.50;1.00;;;;;;5093142;28;20170;-68
2023/05/20 01:54:31;;;;;;;1.93;1.83;;;8.50;1.00;;;;;;5089491;28;20898;-68
2023/05/20 01:56:57;;;;;;;2.27;2.17;;;8.50;1.00;;;;;;5072596;28;20171;-65
2023/05/20 01:59:22;;;;;;;1.70;1.50;;;8.50;1.00;;;;;;5074669;28;20210;-66
2023/05/20 02:01:48;;;;;;;2.50;2.30;;;8.40;1.00;;;;;;5092910;28;20257;-65
2023/05/20 02:04:14;;;;;;;2.37;2.17;;;8.40;1.00;;;;;;5089262;28;20232;-65
2023/05/20 02:06:39;;;;;;;2.60;2.40;;;8.40;1.00;;;;;;5073704;28;20174;-68
2023/05/20 02:09:05;;;;;;;2.43;2.23;;;8.30;1.00;;;;;;5076060;28;20215;-68
2023/05/20 02:11:31;;;;;;;1.87;1.77;;;8.30;1.00;;;;;;5091050;28;20174;-65
2023/05/20 02:13:57;;;;;;;2.10;2.00;;;8.30;1.00;;;;;;5093568;28;20200;-65
2023/05/20 02:16:22;;;;;;;2.10;1.90;;;8.30;1.00;;;;;;5093545;28;20510;-70
2023/05/20 02:18:50;;;;;;;4.50;1.97;;;8.20;1.00;;;;;;5092517;28;20253;-65
2023/05/20 02:21:16;;;;;;;3.30;2.13;;;8.20;1.00;;;;;;5092826;28;20170;-68
2023/05/20 02:23:41;;;;;;;3.00;2.40;;;8.20;1.00;;;;;;5074650;28;20817;-69
2023/05/20 02:26:07;;;;;;;4.10;2.10;;;8.20;1.00;;;;;;5073384;28;20167;-68
2023/05/20 02:28:32;;;;;;;2.40;2.30;;;8.10;1.00;;;;;;5089623;28;20178;-68
2023/05/20 02:30:58;;;;;;;3.47;2.17;;;8.10;1.00;;;;;;5092775;28;20195;-68
2023/05/20 02:33:26;;;;;;;1.90;1.80;;;8.10;1.00;;;;;;5078095;28;20190;-64
2023/05/20 02:35:52;;;;;;;2.17;2.07;;;8.10;1.00;;;;;;5073141;28;20184;-65
2023/05/20 02:38:18;;;;;;;3.10;2.03;;;8.10;1.00;;;;;;5086530;28;20397;-65
2023/05/20 02:40:46;;;;;;;2.90;2.00;;;8.10;1.00;;;;;;5092673;28;20173;-65
2023/05/20 02:43:12;;;;;;;2.67;2.30;;;8.10;1.00;;;;;;5080845;28;20209;-68
2023/05/20 02:45:37;;;;;;;1.70;1.60;;;8.10;1.00;;;;;;5073284;28;20401;-65
2023/05/20 02:48:03;;;;;;;2.00;1.90;;;8.10;1.00;;;;;;5083233;28;20730;-68
2023/05/20 02:50:29;;;;;;;2.10;2.00;;;8.10;1.00;;;;;;5092415;28;20713;-65
2023/05/20 02:52:54;;;;;;;2.03;1.90;;;8.00;1.00;;;;;;5078232;28;20228;-64
2023/05/20 02:55:20;;;;;;;3.43;2.70;;;8.00;1.00;;;;;;5073084;28;20170;-68
2023/05/20 02:57:46;;;;;;;2.63;2.43;;;7.90;1.00;;;;;;5085480;28;20182;-65
2023/05/20 03:00:15;;;;;;;2.43;2.23;;;7.90;1.00;;;;;;5092238;28;20639;-65
2023/05/20 03:02:41;;;;;;;1.97;1.87;;;7.90;1.00;;;;;;5081757;28;20198;-68
2023/05/20 03:05:07;;;;;;;1.90;1.80;;;7.80;1.00;;;;;;5073584;28;20429;-68
2023/05/20 03:07:35;;;;;;;2.37;2.27;;;7.80;1.00;;;;;;5093220;28;20225;-68
2023/05/20 03:10:01;;;;;;;2.33;2.13;;;7.80;1.00;;;;;;5091493;28;20477;-66
2023/05/20 03:12:29;;;;;;;1.90;1.80;;;7.80;1.00;;;;;;5080089;28;20404;-68
2023/05/20 03:14:54;;;;;;;2.47;2.27;;;7.70;1.00;;;;;;5093118;28;20399;-65
2023/05/20 03:17:21;;;;;;;3.70;1.93;;;7.60;1.00;;;;;;5093190;28;20880;-65
2023/05/20 03:19:46;;;;;;;2.50;2.30;;;7.60;1.00;;;;;;5091885;28;20691;-65
2023/05/20 03:22:12;;;;;;;3.50;2.07;;;7.60;1.00;;;;;;5092120;28;20371;-68
2023/05/20 03:24:38;;;;;;;2.43;2.30;;;7.70;1.00;;;;;;5075481;28;20600;-65
2023/05/20 03:27:04;;;;;;;2.17;2.07;;;7.70;1.00;;;;;;5072823;28;20205;-65
2023/05/20 03:29:30;;;;;;;2.10;2.00;;;7.80;1.00;;;;;;5087700;28;20276;-65
2023/05/20 03:31:56;;;;;;;2.93;2.70;;;7.80;1.00;;;;;;5086312;28;20766;-65
2023/05/20 03:34:21;;;;;;;3.27;2.57;;;7.70;1.00;;;;;;5072710;28;20393;-68
2023/05/20 03:36:47;;;;;;;2.23;2.10;;;7.80;1.00;;;;;;5093004;28;20564;-65
2023/05/20 03:39:13;;;;;;;2.50;2.30;;;7.80;1.00;;;;;;5094165;28;20173;-65
2023/05/20 03:41:38;;;;;;;5.43;2.77;;;7.90;1.00;;;;;;5076533;28;20177;-68
2023/05/20 03:44:04;;;;;;;5.70;2.60;;;8.00;3.30;;;;;;5076269;28;20197;-65
2023/05/20 03:46:33;;;;;;;2.47;1.97;;;8.10;18.30;;;;;;5092964;28;20649;-64
2023/05/20 03:49:00;;;;;;;2.63;2.20;;;8.10;19.60;;;;;;5096037;28;20538;-68
2023/05/20 03:51:26;;;;;;;2.33;2.13;;;8.20;18.90;;;;;;5079105;28;20890;-68
2023/05/20 03:53:52;;;;;;;2.87;2.63;;;8.30;35.30;;;;;;5075997;28;20511;-65
2023/05/20 03:56:18;;;;;;;2.40;2.20;;;8.40;36.70;;;;;;5090115;28;20421;-68
2023/05/20 03:58:44;;;;;;;2.60;2.40;;;8.40;33.30;;;;;;5096185;28;20247;-65
2023/05/20 04:01:12;;;;;;;3.50;2.07;;;8.40;40.60;;;;;;5082246;28;20185;-69
2023/05/20 04:03:37;;;;;;;2.47;2.07;;;8.50;36.80;;;;;;5075727;28;20277;-68
2023/05/20 04:06:03;;;;;;;2.40;2.20;;;8.50;42.80;;;;;;5085112;28;20506;-65
2023/05/20 04:08:29;;;;;;;2.50;2.30;;;8.50;43.60;;;;;;5095773;28;20186;-66
2023/05/20 04:10:56;;;;;;;2.10;2.00;;;8.50;39.80;;;;;;5077986;28;20197;-69
2023/05/20 04:13:24;;;;;;;3.70;2.50;;;8.60;51.30;;;;;;5075590;28;20178;-68
2023/05/20 04:15:51;;;;;;;2.10;2.00;;;8.60;53.50;;;;;;5076751;28;20389;-66
2023/05/20 04:18:17;;;;;;;3.57;2.20;;;8.70;63.00;;;;;;5075636;28;20399;-67
2023/05/20 04:20:43;;;;;;;2.00;1.90;;;8.70;61.30;;;;;;5088144;28;20407;-67
2023/05/20 04:23:09;;;;;;;2.90;2.67;;;8.70;55.10;;;;;;5095373;28;20298;-71
2023/05/20 04:25:35;;;;;;;2.87;2.67;;;8.60;56.10;;;;;;5082981;28;20422;-67
2023/05/20 04:28:01;;;;;;;2.33;2.23;;;8.70;58.70;;;;;;5075345;28;20425;-67
2023/05/20 04:30:27;;;;;;;2.00;1.90;;;8.70;61.80;;;;;;5084794;28;20220;-70
2023/05/20 04:32:53;;;;;;;2.50;2.30;;;8.70;59.70;;;;;;5095398;28;20430;-67
2023/05/20 04:35:19;;;;;;;2.37;2.17;;;8.80;66.70;;;;;;5086394;28;20177;-67
2023/05/20 04:37:47;;;;;;;2.27;2.17;;;8.90;63.10;;;;;;5075410;28;20387;-70
2023/05/20 04:40:13;;;;;;;7.00;2.50;;;8.90;65.40;;;;;;5077789;28;21084;-67
2023/05/20 04:42:39;;;;;;;3.10;1.80;;;9.00;63.80;;;;;;5075199;28;20501;-67
2023/05/20 04:45:07;;;;;;;2.73;2.10;;;9.10;65.20;;;;;;5073470;28;20218;-67
2023/05/20 04:47:37;;;;;;;4.73;2.20;;;9.20;60.50;;;;;;5075207;28;20159;-71
2023/05/20 04:50:09;;;;;;;3.17;2.13;;;9.20;56.10;;;;;;5082810;28;20450;-67
2023/05/20 04:52:38;;;;;;;2.07;1.90;;;9.30;56.00;;;;;;5095118;28;20420;-67
2023/05/20 04:55:07;;;;;;;2.63;2.43;;;9.40;58.50;;;;;;5082598;28;20398;-67
2023/05/20 04:57:34;;;;;;;3.10;2.27;;;9.40;52.80;;;;;;5075010;28;20486;-67
2023/05/20 05:00:00;;;;;;;2.63;2.43;;;9.50;51.10;;;;;;5085386;28;20430;-67
2023/05/20 05:02:29;;;;;;;2.43;2.23;;;9.60;55.20;;;;;;5093852;28;20785;-67
2023/05/20 05:04:55;;;;;;;4.30;2.40;;;9.60;49.90;;;;;;5085010;28;20415;-70
2023/05/20 05:07:20;;;;;;;5.13;2.10;;;9.70;52.70;;;;;;5074602;28;20401;-67
2023/05/20 05:09:46;;;;;;;3.40;2.43;;;9.80;52.50;;;;;;5082424;28;20276;-71
2023/05/20 05:12:12;;;;;;;2.90;2.70;;;9.80;44.90;;;;;;5093874;28;20165;-67
2023/05/20 05:14:37;;;;;;;4.37;2.20;;;9.80;41.10;;;;;;5088335;28;20634;-66
2023/05/20 05:17:03;;;;;;;4.00;2.30;;;9.90;43.80;;;;;;5074375;28;20573;-71
2023/05/20 05:19:29;;;;;;;2.47;2.37;;;9.90;41.40;;;;;;5078102;28;20168;-67
2023/05/20 05:21:55;;;;;;;2.20;2.10;;;10.00;44.30;;;;;;5093792;28;20211;-71
2023/05/20 05:24:20;;;;;;;2.00;1.90;;;10.10;48.30;;;;;;5091518;28;20201;-68
2023/05/20 05:26:46;;;;;;;1.97;1.87;;;10.10;50.10;;;;;;5074291;28;20170;-67
2023/05/20 05:29:11;;;;;;;2.80;2.70;;;10.20;52.50;;;;;;5074794;28;20170;-72
2023/05/20 05:31:37;;;;;;;7.00;3.27;;;10.20;56.80;;;;;;5093518;28;20173;-67
2023/05/20 05:34:03;;;;;;;5.00;1.90;;;10.30;61.80;;;;;;5094456;28;20584;-67
2023/05/20 05:36:32;;;;;;;4.27;2.53;;;10.40;64.80;;;;;;5074583;28;20182;-67
2023/05/20 05:38:58;;;;;;;2.60;2.40;;;10.40;66.90;;;;;;5073619;28;20158;-71
2023/05/20 05:41:24;;;;;;;3.13;2.73;;;10.50;67.40;;;;;;5080815;28;20917;-67
2023/05/20 05:43:49;;;;;;;2.83;2.63;;;10.60;72.50;;;;;;5074008;28;20555;-67
2023/05/20 05:46:15;;;;;;;2.60;2.30;;;10.70;68.80;;;;;;5073894;28;20163;-70
2023/05/20 05:48:41;;;;;;;1.90;1.70;;;10.70;69.50;;;;;;5081900;28;20173;-71
2023/05/20 05:51:07;;;;;;;3.73;2.93;;;10.80;73.10;;;;;;5093250;28;20303;-67
2023/05/20 05:53:33;;;;;;;4.80;1.90;;;10.90;70.20;;;;;;5093783;28;20906;-68
2023/05/20 05:55:58;;;;;;;2.30;2.10;;;10.80;62.10;;;;;;5094085;28;20642;-71
2023/05/20 05:58:24;;;;;;;3.23;2.53;;;10.90;66.20;;;;;;5093760;28;20165;-67
2023/05/20 06:00:51;;;;;;;5.30;2.90;;;11.00;72.80;;;;;;5092770;28;20223;-71
2023/05/20 06:03:17;;;;;;;4.10;2.53;;;11.00;74.90;;;;;;5093039;28;20189;-70
2023/05/20 06:05:46;;;;;;;3.93;3.00;;;11.10;75.30;;;;;;5093738;28;20373;-68
2023/05/20 06:08:12;;;;;;;8.43;2.70;;;11.10;68.90;;;;;;5092524;28;20415;-67
2023/05/20 06:10:37;;;;;;;2.80;2.60;;;11.10;63.70;;;;;;5081639;28;20842;-69
2023/05/20 06:13:03;;;;;;;2.73;2.53;;;11.20;69.40;;;;;;5073389;28;20196;-67
2023/05/20 06:15:29;;;;;;;2.43;2.20;;;11.30;80.00;;;;;;5073003;28;20173;-70
2023/05/20 06:17:54;;;;;;;2.90;2.70;;;11.40;83.90;;;;;;5073344;28;20177;-70
2023/05/20 06:20:20;;;;;;;3.77;2.70;;;11.50;78.00;;;;;;5072526;28;20170;-69
2023/05/20 06:22:46;;;;;;;3.93;2.67;;;11.60;84.50;;;;;;5073231;28;20281;-69
2023/05/20 06:25:12;;;;;;;3.20;2.87;;;11.70;74.40;;;;;;5073469;28;20591;-69
2023/05/20 06:27:38;;;;;;;11.70;2.20;;;11.70;76.50;;;;;;5072010;28;20181;-69
2023/05/20 06:30:04;;;;;;;2.63;2.40;;;11.90;82.80;;;;;;5072728;28;20476;-75
2023/05/20 06:32:30;;;;;;;6.73;2.83;;;12.00;65.50;;;;;;5073139;28;20186;-66
2023/05/20 06:34:56;;;;;;;5.73;2.70;;;12.00;64.30;;;;;;5073382;28;20407;-69
2023/05/20 06:37:23;;;;;;;3.73;2.50;;;12.10;65.00;;;;;;5071940;28;20412;-69
2023/05/20 06:39:52;;;;;;;6.70;3.20;;;12.30;59.90;;;;;;5073147;28;20522;-67
2023/05/20 06:42:19;;;;;;;3.13;2.70;;;12.30;59.80;;;;;;5072547;28;20390;-67
2023/05/20 06:44:45;;;;;;;4.07;3.30;;;12.40;53.80;;;;;;5071972;28;20765;-66
2023/05/20 06:47:17;;;;;;;3.93;2.80;;;12.50;45.50;;;;;;5073241;28;20379;-69
2023/05/20 06:49:43;;;;;;;4.20;3.73;;;12.50;28.60;;;;;;5073136;28;20647;-68
2023/05/20 06:52:10;;;;;;;5.13;2.27;;;12.50;18.00;;;;;;5071732;28;20909;-67
2023/05/20 06:54:40;;;;;;;3.10;2.90;;;12.60;18.50;;;;;;5073264;28;20442;-67
2023/05/20 06:57:07;;;;;;;5.03;3.43;;;12.70;19.80;;;;;;5073103;28;20376;-70
2023/05/20 06:59:34;;;;;;;3.93;3.07;;;12.70;17.50;;;;;;5073152;28;20386;-69
2023/05/20 07:02:00;;;;;;;4.47;2.53;;;12.80;18.60;;;;;;5072057;28;20496;-68
2023/05/20 07:04:25;;;;;;;3.60;2.80;;;13.00;12.90;;;;;;5072989;28;20473;-70
2023/05/20 07:06:51;;;;;;;4.20;2.90;;;13.10;18.30;;;;;;5073105;28;20177;-66
2023/05/20 07:09:17;;;;;;;3.57;2.80;;;13.20;9.60;;;;;;5073193;28;20174;-70
2023/05/20 07:11:42;;;;;;;2.77;2.57;;;13.30;1.00;;;;;;5071668;28;20256;-70
2023/05/20 07:14:09;;;;;;;9.80;2.93;;;13.40;1.00;;;;;;5073899;28;20183;-69
2023/05/20 07:16:35;;;;;;;2.77;2.57;;;13.50;1.00;;;;;;5076936;28;20165;-67
2023/05/20 07:19:01;;;;;;;3.33;3.03;;;13.60;1.00;;;;;;5076818;28;20900;-70
2023/05/20 07:21:27;;;;;;;5.00;2.67;;;13.80;1.00;;;;;;5075790;28;20407;-67
2023/05/20 07:23:53;;;;;;;5.13;2.43;;;13.90;1.00;;;;;;5076507;28;20406;-69
2023/05/20 07:26:18;;;;;;;2.40;2.20;;;13.90;1.00;;;;;;5076457;28;20573;-67
2023/05/20 07:28:45;;;;;;;2.83;2.50;;;14.00;1.00;;;;;;5076586;28;20197;-67
2023/05/20 07:31:12;;;;;;;3.37;3.07;;;14.10;1.00;;;;;;5075384;28;20690;-72
2023/05/20 07:33:38;;;;;;;7.83;2.90;;;14.20;1.00;;;;;;5076194;28;20939;-70
2023/05/20 07:36:03;;;;;;;3.07;2.77;;;14.30;1.00;;;;;;5076309;28;20397;-70
2023/05/20 07:38:29;;;;;;;3.60;2.37;;;14.30;1.00;;;;;;5076436;28;20438;-67
2023/05/20 07:40:55;;;;;;;4.07;3.00;;;14.30;1.00;;;;;;5075723;28;20249;-67
2023/05/20 07:43:21;;;;;;;5.20;3.00;;;14.40;1.00;;;;;;5076293;28;20583;-67
2023/05/20 07:45:47;;;;;;;5.57;2.77;;;14.50;1.00;;;;;;5076441;28;20174;-67
2023/05/20 07:48:13;;;;;;;6.77;2.90;;;14.60;1.00;;;;;;5076256;28;20174;-72
2023/05/20 07:50:39;;;;;;;5.03;2.63;;;14.80;1.00;;;;;;5074890;28;20448;-67
2023/05/20 07:53:05;;;;;;;3.10;2.80;;;14.80;1.00;;;;;;5076184;28;20261;-72
2023/05/20 07:55:35;;;;;;;4.23;3.37;;;14.80;1.00;;;;;;5076349;28;20623;-71
2023/05/20 07:58:02;;;;;;;4.23;3.87;;;14.80;1.00;;;;;;5076058;28;20393;-71
2023/05/20 08:00:27;;;;;;;2.83;2.63;;;14.80;1.00;;;;;;5075189;28;20401;-68
2023/05/20 08:02:53;;;;;;;3.97;3.27;;;14.90;1.00;;;;;;5075877;28;20424;-71
2023/05/20 08:05:19;;;;;;;3.50;2.83;;;15.00;1.00;;;;;;5075989;28;20163;-67
2023/05/20 08:07:45;;;;;;;4.40;3.47;;;15.00;1.00;;;;;;5075813;28;20562;-68
2023/05/20 08:10:11;;;;;;;4.13;2.93;;;15.00;1.00;;;;;;5074632;28;20186;-68
2023/05/20 08:12:36;;;;;;;4.83;3.40;;;14.90;1.00;;;;;;5075457;28;20186;-68
2023/05/20 08:15:03;;;;;;;6.67;3.73;;;14.90;1.00;;;;;;5075899;28;20571;-70
2023/05/20 08:17:29;;;;;;;3.03;2.80;;;15.00;1.00;;;;;;5075894;28;20190;-68
2023/05/20 08:19:54;;;;;;;5.20;3.40;;;15.20;1.00;;;;;;5075429;28;20448;-71
2023/05/20 08:22:20;;;;;;;4.40;2.90;;;15.00;1.00;;;;;;5074993;28;20166;-73
2023/05/20 08:24:46;;;;;;;6.37;3.00;;;14.90;1.00;;;;;;5074818;28;20190;-68
2023/05/20 08:27:11;;;;;;;5.53;2.97;;;15.00;1.00;;;;;;5075158;28;20174;-67
2023/05/20 08:29:37;;;;;;;6.33;2.93;;;15.00;1.00;;;;;;5075517;28;20229;-67
2023/05/20 08:32:03;;;;;;;6.63;3.23;;;15.00;1.00;;;;;;5074651;28;20194;-68
2023/05/20 08:34:29;;;;;;;5.03;3.23;;;15.20;1.00;;;;;;5075350;28;20167;-68
2023/05/20 08:37:01;;;;;;;7.07;3.47;;;15.40;1.00;;;;;;5075309;28;20396;-71
2023/05/20 08:39:27;;;;;;;6.80;2.60;;;15.40;1.00;;;;;;5075313;28;20272;-67
2023/05/20 08:41:53;;;;;;;7.90;3.50;;;15.20;1.00;;;;;;5074587;28;20411;-70
2023/05/20 08:44:21;;;;;;;2.70;2.50;;;15.20;1.00;;;;;;5074877;28;20194;-69
2023/05/20 08:46:48;;;;;;;6.60;2.93;;;15.40;1.00;;;;;;5074861;28;20404;-69
2023/05/20 08:49:14;;;;;;;5.53;2.23;;;15.60;1.00;;;;;;5075053;28;20411;-71
2023/05/20 08:51:41;;;;;;;5.80;3.03;;;15.80;1.00;;;;;;5074290;28;20397;-71
2023/05/20 08:54:08;;;;;;;3.60;2.40;;;16.10;1.00;;;;;;5074947;28;20182;-67
2023/05/20 08:56:37;;;;;;;3.20;2.03;;;16.50;1.00;;;;;;5074249;28;20409;-70
2023/05/20 08:59:03;;;;;;;6.03;2.50;;;16.70;1.00;;;;;;5074878;28;20412;-68
2023/05/20 09:01:28;;;;;;;2.33;2.10;;;17.00;1.00;;;;;;5074322;28;20451;-68
2023/05/20 09:03:56;;;;;;;5.77;2.40;;;17.10;1.00;;;;;;5073434;28;20424;-70
2023/05/20 09:06:22;;;;;;;5.30;2.53;;;17.10;1.00;;;;;;5074895;28;20167;-67
2023/05/20 09:08:50;;;;;;;2.13;1.93;;;17.20;1.00;;;;;;5075412;28;20499;-68
2023/05/20 09:11:16;;;;;;;2.80;2.37;;;17.10;1.00;;;;;;5073617;28;20976;-71
2023/05/20 09:13:42;;;;;;;5.27;2.30;;;17.10;1.00;;;;;;5089121;28;20819;-68
2023/05/20 09:16:10;;;;;;;2.20;2.10;;;17.30;1.00;;;;;;5094799;28;20410;-69
2023/05/20 09:18:39;;;;;;;1.90;1.70;;;17.50;1.00;;;;;;5078781;28;20466;-71
2023/05/20 09:21:05;;;;;;;2.20;2.00;;;17.70;1.00;;;;;;5077386;28;20422;-72
2023/05/20 09:23:31;;;;;;;2.10;1.63;;;17.70;1.00;;;;;;5094410;28;20451;-70
2023/05/20 09:26:01;;;;;;;1.87;1.70;;;17.90;1.00;;;;;;5091801;28;20515;-68
2023/05/20 09:28:27;;;;;;;2.83;1.90;;;18.10;1.00;;;;;;5074452;28;20511;-70
2023/05/20 09:30:58;;;;;;;11.63;2.20;;;18.20;1.00;;;;;;5074506;28;20452;-71
2023/05/20 09:33:30;;;;;;;1.87;1.77;;;18.30;1.00;;;;;;5094215;28;20194;-68
2023/05/20 09:36:04;;;;;;;4.60;1.93;;;18.40;1.00;;;;;;5092183;28;20438;-68
2023/05/20 09:38:36;;;;;;;4.27;2.57;;;18.30;99.90;;;;;;5073617;28;20746;-65
2023/05/20 09:41:07;;;;;;;4.80;1.67;;;18.10;99.90;;;;;;5074057;28;20409;-69
2023/05/20 09:43:34;;;;;;;2.17;2.03;;;17.70;99.90;;;;;;5094107;28;20431;-66
2023/05/20 09:46:01;;;;;;;2.93;2.63;;;17.60;99.90;;;;;;5092249;28;20442;-66
2023/05/20 09:48:27;;;;;;;3.00;2.50;;;17.80;99.90;;;;;;5074154;28;20396;-68
2023/05/20 09:50:55;;;;;;;4.60;1.97;;;17.70;99.90;;;;;;5072887;28;20918;-66
2023/05/20 09:53:22;;;;;;;1.90;1.80;;;17.50;99.90;;;;;;5092771;28;20431;-66
2023/05/20 09:55:49;;;;;;;3.57;2.37;;;17.60;99.90;;;;;;5093093;28;20426;-66
2023/05/20 09:58:19;;;;;;;2.30;1.70;;;17.70;99.90;;;;;;5075308;28;20508;-68
2023/05/20 10:00:45;;;;;;;2.20;1.60;;;17.90;99.90;;;;;;5071626;28;20427;-67
2023/05/20 10:03:11;;;;;;;2.30;2.10;;;17.60;99.90;;;;;;5090028;28;20509;-68
2023/05/20 10:05:46;;;;;;;2.20;1.90;;;17.20;99.90;;;;;;5093831;28;20411;-68
2023/05/20 10:08:37;;;;;;;2.40;2.20;;;16.70;99.90;;;;;;5077548;28;20412;-67
2023/05/20 10:11:27;;;;;;;4.50;1.87;;;16.40;99.90;;;;;;5072543;28;20445;-65
2023/05/20 10:14:11;;;;;;;2.70;1.70;;;16.40;99.90;;;;;;5073435;28;20436;-65
2023/05/20 10:16:48;;;;;;;1.73;1.43;;;16.70;99.90;;;;;;5076451;28;20407;-69
2023/05/20 10:19:30;;;;;;;3.93;1.90;;;16.90;99.90;;;;;;5073388;28;20409;-69
2023/05/20 10:22:04;;;;;;;1.87;1.67;;;16.90;99.90;;;;;;5072777;28;20420;-68
2023/05/20 10:24:56;;;;;;;6.00;1.83;;;16.80;99.90;;;;;;5072051;28;20851;-68
2023/05/20 10:27:23;;;;;;;9.40;2.13;;;17.00;99.90;;;;;;5083460;28;20967;-69
2023/05/20 10:29:54;;;;;;;2.33;2.13;;;17.10;99.90;;;;;;5093060;28;20804;-70
2023/05/20 10:32:31;;;;;;;1.93;1.80;;;17.20;99.90;;;;;;5079009;28;20515;-69
2023/05/20 10:35:03;;;;;;;1.80;1.70;;;17.00;99.90;;;;;;5073079;28;20405;-69
2023/05/20 10:37:47;;;;;;;3.13;1.80;;;17.10;99.90;;;;;;5086916;28;20419;-70
2023/05/20 10:40:14;;;;;;;2.93;1.67;;;17.20;99.90;;;;;;5091301;28;21312;-69
2023/05/20 10:42:41;;;;;;;2.80;2.00;;;17.30;99.90;;;;;;5078264;28;20444;-69
2023/05/20 10:45:08;;;;;;;4.30;2.10;;;17.60;99.90;;;;;;5073350;28;20401;-67
2023/05/20 10:47:35;;;;;;;1.90;1.80;;;17.80;99.90;;;;;;5086414;28;20502;-68
2023/05/20 10:50:03;;;;;;;2.47;2.10;;;17.70;99.90;;;;;;5097290;28;20447;-68
2023/05/20 10:52:33;;;;;;;4.50;2.33;;;17.70;99.90;;;;;;5084469;28;20493;-70
2023/05/20 10:55:00;;;;;;;2.00;1.80;;;17.60;99.90;;;;;;5077335;28;20400;-70
2023/05/20 10:57:27;;;;;;;2.70;2.37;;;17.80;99.90;;;;;;5078306;28;20405;-68
2023/05/20 10:59:54;;;;;;;2.73;2.13;;;18.10;99.90;;;;;;5081047;28;20427;-75
2023/05/20 11:02:27;;;;;;;2.37;1.97;;;18.00;99.90;;;;;;5079417;28;20435;-67
2023/05/20 11:04:57;;;;;;;2.93;2.00;;;17.90;99.90;;;;;;5079346;28;20420;-70
2023/05/20 11:07:31;;;;;;;2.37;2.17;;;17.80;99.90;;;;;;5085724;28;20423;-70
2023/05/20 11:10:00;;;;;;;2.80;2.20;;;17.90;99.90;;;;;;5095197;28;20812;-69
2023/05/20 11:12:26;;;;;;;2.67;2.00;;;18.00;99.90;;;;;;5094068;28;20439;-70
2023/05/20 11:14:53;;;;;;;5.40;2.33;;;18.00;99.90;;;;;;5097185;28;20452;-68
2023/05/20 11:17:19;;;;;;;4.40;2.43;;;18.60;99.90;;;;;;5095685;28;20437;-69
2023/05/20 11:19:46;;;;;;;2.73;1.80;;;19.70;99.90;;;;;;5076745;28;20400;-70
2023/05/20 11:22:12;;;;;;;3.20;2.87;;;20.40;99.90;;;;;;5075689;28;20405;-70
2023/05/20 11:24:38;;;;;;;2.23;2.03;;;20.40;99.90;;;;;;5076748;28;20989;-68
2023/05/20 11:27:05;;;;;;;3.93;2.70;;;20.40;99.90;;;;;;5076268;28;20295;-69
2023/05/20 11:29:32;;;;;;;4.73;2.30;;;19.70;99.90;;;;;;5094340;28;20205;-68
2023/05/20 11:32:00;;;;;;;3.47;2.30;;;19.20;99.90;;;;;;5095395;28;20407;-71
2023/05/20 11:34:31;;;;;;;6.30;2.23;;;18.30;99.90;;;;;;5076168;28;20444;-69
2023/05/20 11:36:58;;;;;;;2.97;2.70;;;18.40;99.90;;;;;;5076392;28;20469;-69
2023/05/20 11:39:24;;;;;;;3.97;2.60;;;19.10;99.90;;;;;;5095915;28;20422;-69
2023/05/20 11:41:50;;;;;;;2.93;2.73;;;18.90;99.90;;;;;;5095815;28;20404;-68
2023/05/20 11:44:19;;;;;;;4.47;2.30;;;18.50;99.90;;;;;;5077845;28;20475;-69
2023/05/20 11:46:47;;;;;;;5.53;2.53;;;18.70;99.90;;;;;;5076009;28;20401;-71
2023/05/20 11:49:14;;;;;;;3.33;2.80;;;19.50;99.90;;;;;;5077738;28;20424;-70
2023/05/20 11:51:41;;;;;;;3.67;2.60;;;19.80;99.90;;;;;;5075409;28;20405;-70
2023/05/20 11:54:08;;;;;;;4.30;2.60;;;19.30;99.90;;;;;;5075172;28;20472;-68
2023/05/20 11:56:37;;;;;;;2.97;2.53;;;19.60;99.90;;;;;;5075979;28;20403;-68
2023/05/20 11:59:04;;;;;;;3.10;2.33;;;19.60;99.90;;;;;;5093279;28;20472;-69
2023/05/20 12:01:41;;;;;;;3.90;2.20;;;20.10;99.90;;;;;;5095024;28;20406;-69
2023/05/20 12:04:08;;;;;;;5.10;2.73;;;21.50;99.90;;;;;;5077300;28;20436;-69
2023/05/20 12:06:38;;;;;;;4.17;2.00;;;21.70;99.90;;;;;;5078250;28;20420;-70
2023/05/20 12:09:06;;;;;;;1.93;1.80;;;21.70;99.90;;;;;;5095798;28;20415;-68
2023/05/20 12:11:40;;;;;;;5.20;2.53;;;21.90;99.90;;;;;;5093093;28;20952;-68
2023/05/20 12:14:06;;;;;;;6.03;2.50;;;20.70;99.90;;;;;;5075847;28;20408;-68
2023/05/20 12:16:33;;;;;;;27.13;4.20;;;19.70;99.90;;;;;;5075964;28;20945;-70
2023/05/20 12:18:59;;;;;;;2.47;2.17;;;19.40;99.90;;;;;;5074505;28;20451;-68
2023/05/20 12:21:27;;;;;;;9.93;3.33;;;19.20;99.90;;;;;;5074372;28;20400;-69
2023/05/20 12:23:56;;;;;;;9.20;2.97;;;19.30;99.90;;;;;;5074570;28;20463;-71
2023/05/20 12:26:26;;;;;;;3.43;2.23;;;19.40;99.90;;;;;;5075451;28;20416;-70
2023/05/20 12:28:52;;;;;;;3.33;3.00;;;20.00;99.90;;;;;;5093988;28;20430;-71
2023/05/20 12:31:18;;;;;;;9.60;2.90;;;20.20;99.90;;;;;;5094868;28;20462;-71
2023/05/20 12:37:25;;;;;;;3.40;2.50;;;20.30;99.90;;;;;;5092332;28;20449;-71
2023/05/20 12:39:50;;;;;;;2.90;2.70;;;20.60;99.90;;;;;;5074595;28;20492;-70
2023/05/20 12:42:16;;;;;;;4.13;1.87;;;20.90;99.90;;;;;;5076929;28;20859;-70
2023/05/20 12:44:42;;;;;;;4.10;2.10;;;20.70;99.90;;;;;;5095320;28;20169;-70
2023/05/20 12:47:08;;;;;;;4.73;2.80;;;20.10;99.90;;;;;;5088245;28;20269;-69
2023/05/20 12:49:34;;;;;;;6.90;2.20;;;19.80;99.90;;;;;;5075047;28;20793;-67
2023/05/20 12:52:00;;;;;;;2.23;2.00;;;19.80;99.90;;;;;;5077903;28;20419;-66
2023/05/20 12:54:27;;;;;;;2.90;2.23;;;19.60;99.90;;;;;;5095274;28;20228;-66
2023/05/20 12:56:53;;;;;;;2.10;1.90;;;19.10;99.90;;;;;;5092203;28;20178;-70
2023/05/20 12:59:22;;;;;;;5.97;2.60;;;18.70;99.90;;;;;;5073820;28;20931;-69